sensor_id;sensor_type;location;lat;lon;timestamp;temperature;humidity
18444;DHT22;9350;53.176;8.194;2022-08-21T00:00:18;17.60;99.90
18444;DHT22;9350;53.176;8.194;2022-08-21T00:02:47;17.60;99.90
18444;DHT22;9350;53.176;8.194;2022-08-21T00:05:15;17.50;99.90
18444;DHT22;9350;53.176;8.194;2022-08-21T00:07:43;17.50;99.90
18444;DHT22;9350;53.176;8.194;2022-08-21T00:10:11;17.60;99.90
18444;DHT22;9350;53.176;8.194;2022-08-21T00:12:39;17.50;99.90
18444;DHT22;9350;53.176;8.194;2022-08-21T00:15:09;17.50;99.90
18444;DHT22;9350;53.176;8.194;2022-08-21T00:17:38;17.50;99.90
18444;DHT22;9350;53.176;8.194;2022-08-21T00:20:07;17.50;99.90
18444;DHT22;9350;53.176;8.194;2022-08-21T00:22:34;17.40;99.90
18444;DHT22;9350;53.176;8.194;2022-08-21T00:25:02;17.40;99.90
18444;DHT22;9350;53.176;8.194;2022-08-21T00:27:29;17.40;99.90
18444;DHT22;9350;53.176;8.194;2022-08-21T00:29:57;17.30;99.90
18444;DHT22;9350;53.176;8.194;2022-08-21T00:32:25;17.30;99.90
18444;DHT22;9350;53.176;8.194;2022-08-21T00:34:53;17.30;99.90
18444;DHT22;9350;53.176;8.194;2022-08-21T00:37:20;17.20;99.90
18444;DHT22;9350;53.176;8.194;2022-08-21T00:39:47;17.20;99.90
18444;DHT22;9350;53.176;8.194;2022-08-21T00:42:14;17.20;99.90
18444;DHT22;9350;53.176;8.194;2022-08-21T00:44:41;17.20;99.90
18444;DHT22;9350;53.176;8.194;2022-08-21T00:47:10;17.30;99.90
18444;DHT22;9350;53.176;8.194;2022-08-21T00:49:37;17.20;99.90
18444;DHT22;9350;53.176;8.194;2022-08-21T00:52:06;17.20;99.90
18444;DHT22;9350;53.176;8.194;2022-08-21T00:54:35;17.30;99.90
18444;DHT22;9350;53.176;8.194;2022-08-21T00:57:07;17.10;99.90
18444;DHT22;9350;53.176;8.194;2022-08-21T00:59:36;17.10;99.90
18444;DHT22;9350;53.176;8.194;2022-08-21T01:02:06;17.00;99.90
18444;DHT22;9350;53.176;8.194;2022-08-21T01:04:35;17.00;99.90
18444;DHT22;9350;53.176;8.194;2022-08-21T01:07:02;17.00;99.90
18444;DHT22;9350;53.176;8.194;2022-08-21T01:09:30;17.00;99.90
18444;DHT22;9350;53.176;8.194;2022-08-21T01:12:01;17.00;99.90
18444;DHT22;9350;53.176;8.194;2022-08-21T01:14:28;16.90;99.90
18444;DHT22;9350;53.176;8.194;2022-08-21T01:16:56;16.90;99.90
18444;DHT22;9350;53.176;8.194;2022-08-21T01:19:25;17.00;99.90
18444;DHT22;9350;53.176;8.194;2022-08-21T01:21:54;16.90;99.90
18444;DHT22;9350;53.176;8.194;2022-08-21T01:24:21;16.90;99.90
18444;DHT22;9350;53.176;8.194;2022-08-21T01:26:49;16.80;99.90
18444;DHT22;9350;53.176;8.194;2022-08-21T01:29:26;16.90;99.90
18444;DHT22;9350;53.176;8.194;2022-08-21T01:31:56;16.90;99.90
18444;DHT22;9350;53.176;8.194;2022-08-21T01:34:23;16.70;99.90
18444;DHT22;9350;53.176;8.194;2022-08-21T01:36:50;16.80;99.90
18444;DHT22;9350;53.176;8.194;2022-08-21T01:39:19;16.80;99.90
18444;DHT22;9350;53.176;8.194;2022-08-21T01:41:46;16.80;99.90
18444;DHT22;9350;53.176;8.194;2022-08-21T01:44:13;16.70;99.90
18444;DHT22;9350;53.176;8.194;2022-08-21T01:46:39;16.80;99.90
18444;DHT22;9350;53.176;8.194;2022-08-21T01:49:06;16.70;99.90
18444;DHT22;9350;53.176;8.194;2022-08-21T01:51:34;16.80;99.90
18444;DHT22;9350;53.176;8.194;2022-08-21T01:54:01;16.80;99.90
18444;DHT22;9350;53.176;8.194;2022-08-21T01:56:36;16.80;99.90
18444;DHT22;9350;53.176;8.194;2022-08-21T01:59:03;16.70;99.90
18444;DHT22;9350;53.176;8.194;2022-08-21T02:01:29;16.70;99.90
18444;DHT22;9350;53.176;8.194;2022-08-21T02:03:56;16.70;99.90
18444;DHT22;9350;53.176;8.194;2022-08-21T02:06:25;16.70;99.90
18444;DHT22;9350;53.176;8.194;2022-08-21T02:08:52;16.60;99.90
18444;DHT22;9350;53.176;8.194;2022-08-21T02:11:19;16.60;99.90
18444;DHT22;9350;53.176;8.194;2022-08-21T02:13:47;16.60;99.90
18444;DHT22;9350;53.176;8.194;2022-08-21T02:16:14;16.60;99.90
18444;DHT22;9350;53.176;8.194;2022-08-21T02:18:41;16.60;99.90
18444;DHT22;9350;53.176;8.194;2022-08-21T02:21:08;16.60;99.90
18444;DHT22;9350;53.176;8.194;2022-08-21T02:23:35;16.50;99.90
18444;DHT22;9350;53.176;8.194;2022-08-21T02:26:04;16.50;99.90
18444;DHT22;9350;53.176;8.194;2022-08-21T02:28:33;16.50;99.90
18444;DHT22;9350;53.176;8.194;2022-08-21T02:31:02;16.60;99.90
18444;DHT22;9350;53.176;8.194;2022-08-21T02:33:29;16.50;99.90
18444;DHT22;9350;53.176;8.194;2022-08-21T02:35:57;16.60;99.90
18444;DHT22;9350;53.176;8.194;2022-08-21T02:38:26;16.60;99.90
18444;DHT22;9350;53.176;8.194;2022-08-21T02:40:54;16.60;99.90
18444;DHT22;9350;53.176;8.194;2022-08-21T02:43:23;16.60;99.90
18444;DHT22;9350;53.176;8.194;2022-08-21T02:45:51;16.60;99.90
18444;DHT22;9350;53.176;8.194;2022-08-21T02:48:21;16.60;99.90
18444;DHT22;9350;53.176;8.194;2022-08-21T02:50:52;16.60;99.90
18444;DHT22;9350;53.176;8.194;2022-08-21T02:53:20;16.50;99.90
18444;DHT22;9350;53.176;8.194;2022-08-21T02:55:49;16.60;99.90
18444;DHT22;9350;53.176;8.194;2022-08-21T02:58:18;16.70;99.90
18444;DHT22;9350;53.176;8.194;2022-08-21T03:00:45;16.60;99.90
18444;DHT22;9350;53.176;8.194;2022-08-21T03:03:13;16.60;99.90
18444;DHT22;9350;53.176;8.194;2022-08-21T03:05:42;16.60;99.90
18444;DHT22;9350;53.176;8.194;2022-08-21T03:08:11;16.70;99.90
18444;DHT22;9350;53.176;8.194;2022-08-21T03:10:40;16.80;99.90
18444;DHT22;9350;53.176;8.194;2022-08-21T03:13:08;16.90;99.90
18444;DHT22;9350;53.176;8.194;2022-08-21T03:15:35;16.80;99.90
18444;DHT22;9350;53.176;8.194;2022-08-21T03:18:06;16.90;99.90
18444;DHT22;9350;53.176;8.194;2022-08-21T03:20:42;16.80;99.90
18444;DHT22;9350;53.176;8.194;2022-08-21T03:26:27;16.70;99.90
18444;DHT22;9350;53.176;8.194;2022-08-21T03:28:59;16.60;99.90
18444;DHT22;9350;53.176;8.194;2022-08-21T03:31:28;16.50;99.90
18444;DHT22;9350;53.176;8.194;2022-08-21T03:33:57;16.50;99.90
18444;DHT22;9350;53.176;8.194;2022-08-21T03:36:28;16.50;99.90
18444;DHT22;9350;53.176;8.194;2022-08-21T03:39:06;16.40;99.90
18444;DHT22;9350;53.176;8.194;2022-08-21T03:41:42;16.40;99.90
18444;DHT22;9350;53.176;8.194;2022-08-21T03:44:32;16.40;99.90
18444;DHT22;9350;53.176;8.194;2022-08-21T03:47:19;16.30;99.90
18444;DHT22;9350;53.176;8.194;2022-08-21T03:49:54;16.30;99.90
18444;DHT22;9350;53.176;8.194;2022-08-21T03:52:48;16.20;99.90
18444;DHT22;9350;53.176;8.194;2022-08-21T03:55:37;16.20;99.90
18444;DHT22;9350;53.176;8.194;2022-08-21T03:58:41;16.20;99.90
18444;DHT22;9350;53.176;8.194;2022-08-21T04:01:37;16.20;99.90
18444;DHT22;9350;53.176;8.194;2022-08-21T04:04:38;16.20;99.90
18444;DHT22;9350;53.176;8.194;2022-08-21T04:07:08;16.10;99.90
18444;DHT22;9350;53.176;8.194;2022-08-21T04:09:54;16.10;99.90
18444;DHT22;9350;53.176;8.194;2022-08-21T04:12:32;16.10;99.90
18444;DHT22;9350;53.176;8.194;2022-08-21T04:14:59;16.10;99.90
18444;DHT22;9350;53.176;8.194;2022-08-21T04:17:27;16.10;99.90
18444;DHT22;9350;53.176;8.194;2022-08-21T04:19:54;16.10;99.90
18444;DHT22;9350;53.176;8.194;2022-08-21T04:22:21;16.00;99.90
18444;DHT22;9350;53.176;8.194;2022-08-21T04:24:52;16.00;99.90
18444;DHT22;9350;53.176;8.194;2022-08-21T04:27:26;16.00;99.90
18444;DHT22;9350;53.176;8.194;2022-08-21T04:29:53;16.00;99.90
18444;DHT22;9350;53.176;8.194;2022-08-21T04:32:22;16.00;99.90
18444;DHT22;9350;53.176;8.194;2022-08-21T04:34:49;15.90;99.90
18444;DHT22;9350;53.176;8.194;2022-08-21T04:37:16;15.90;99.90
18444;DHT22;9350;53.176;8.194;2022-08-21T04:39:43;16.00;99.90
18444;DHT22;9350;53.176;8.194;2022-08-21T04:42:11;16.00;99.90
18444;DHT22;9350;53.176;8.194;2022-08-21T04:44:37;15.90;99.90
18444;DHT22;9350;53.176;8.194;2022-08-21T04:47:04;15.90;99.90
18444;DHT22;9350;53.176;8.194;2022-08-21T04:49:32;15.90;99.90
18444;DHT22;9350;53.176;8.194;2022-08-21T04:52:00;15.90;99.90
18444;DHT22;9350;53.176;8.194;2022-08-21T04:54:27;15.90;99.90
18444;DHT22;9350;53.176;8.194;2022-08-21T04:56:58;15.90;99.90
18444;DHT22;9350;53.176;8.194;2022-08-21T04:59:33;16.00;99.90
18444;DHT22;9350;53.176;8.194;2022-08-21T05:02:02;16.00;99.90
18444;DHT22;9350;53.176;8.194;2022-08-21T05:04:33;16.00;99.90
18444;DHT22;9350;53.176;8.194;2022-08-21T05:07:04;16.10;99.90
18444;DHT22;9350;53.176;8.194;2022-08-21T05:09:32;16.10;99.90
18444;DHT22;9350;53.176;8.194;2022-08-21T05:12:00;16.10;99.90
18444;DHT22;9350;53.176;8.194;2022-08-21T05:14:27;16.10;99.90
18444;DHT22;9350;53.176;8.194;2022-08-21T05:16:56;16.10;99.90
18444;DHT22;9350;53.176;8.194;2022-08-21T05:19:24;16.20;99.90
18444;DHT22;9350;53.176;8.194;2022-08-21T05:21:52;16.30;99.90
18444;DHT22;9350;53.176;8.194;2022-08-21T05:24:19;16.20;99.90
18444;DHT22;9350;53.176;8.194;2022-08-21T05:26:46;16.20;99.90
18444;DHT22;9350;53.176;8.194;2022-08-21T05:29:14;16.30;99.90
18444;DHT22;9350;53.176;8.194;2022-08-21T05:32:21;16.40;99.90
18444;DHT22;9350;53.176;8.194;2022-08-21T05:35:08;16.40;99.90
18444;DHT22;9350;53.176;8.194;2022-08-21T05:37:35;16.40;99.90
18444;DHT22;9350;53.176;8.194;2022-08-21T05:40:03;16.50;99.90
18444;DHT22;9350;53.176;8.194;2022-08-21T05:42:30;16.60;99.90
18444;DHT22;9350;53.176;8.194;2022-08-21T05:44:57;16.60;99.90
18444;DHT22;9350;53.176;8.194;2022-08-21T05:47:25;16.70;99.90
18444;DHT22;9350;53.176;8.194;2022-08-21T05:49:52;16.70;99.90
18444;DHT22;9350;53.176;8.194;2022-08-21T05:52:20;16.80;99.90
18444;DHT22;9350;53.176;8.194;2022-08-21T05:54:47;16.80;99.90
18444;DHT22;9350;53.176;8.194;2022-08-21T05:57:14;16.80;99.90
18444;DHT22;9350;53.176;8.194;2022-08-21T05:59:41;16.90;99.90
18444;DHT22;9350;53.176;8.194;2022-08-21T06:02:11;16.90;99.90
18444;DHT22;9350;53.176;8.194;2022-08-21T06:21:42;17.30;99.90
18444;DHT22;9350;53.176;8.194;2022-08-21T06:24:09;17.40;99.90
18444;DHT22;9350;53.176;8.194;2022-08-21T06:26:35;17.40;99.90
18444;DHT22;9350;53.176;8.194;2022-08-21T06:29:02;17.50;99.90
18444;DHT22;9350;53.176;8.194;2022-08-21T06:31:29;17.40;99.90
18444;DHT22;9350;53.176;8.194;2022-08-21T06:33:56;17.50;99.90
18444;DHT22;9350;53.176;8.194;2022-08-21T06:36:23;17.60;99.90
18444;DHT22;9350;53.176;8.194;2022-08-21T06:38:51;17.60;99.90
18444;DHT22;9350;53.176;8.194;2022-08-21T06:41:18;17.60;99.90
18444;DHT22;9350;53.176;8.194;2022-08-21T06:43:45;17.70;99.90
18444;DHT22;9350;53.176;8.194;2022-08-21T06:46:11;17.80;99.90
18444;DHT22;9350;53.176;8.194;2022-08-21T06:48:38;17.80;99.90
18444;DHT22;9350;53.176;8.194;2022-08-21T06:51:05;17.80;99.90
18444;DHT22;9350;53.176;8.194;2022-08-21T06:53:32;17.90;99.90
18444;DHT22;9350;53.176;8.194;2022-08-21T06:56:00;18.00;99.90
18444;DHT22;9350;53.176;8.194;2022-08-21T06:58:27;18.00;99.90
18444;DHT22;9350;53.176;8.194;2022-08-21T07:00:54;18.10;99.90
18444;DHT22;9350;53.176;8.194;2022-08-21T07:03:23;18.10;99.90
18444;DHT22;9350;53.176;8.194;2022-08-21T07:05:50;18.10;99.90
18444;DHT22;9350;53.176;8.194;2022-08-21T07:08:17;18.20;99.90
18444;DHT22;9350;53.176;8.194;2022-08-21T07:10:44;18.20;99.90
18444;DHT22;9350;53.176;8.194;2022-08-21T07:13:12;18.20;99.90
18444;DHT22;9350;53.176;8.194;2022-08-21T07:15:39;18.30;99.90
18444;DHT22;9350;53.176;8.194;2022-08-21T07:18:06;18.30;99.90
18444;DHT22;9350;53.176;8.194;2022-08-21T07:20:33;18.30;99.90
18444;DHT22;9350;53.176;8.194;2022-08-21T07:23:02;18.40;99.90
18444;DHT22;9350;53.176;8.194;2022-08-21T07:25:29;18.40;99.90
18444;DHT22;9350;53.176;8.194;2022-08-21T07:27:56;18.50;99.90
18444;DHT22;9350;53.176;8.194;2022-08-21T07:30:25;18.50;99.90
18444;DHT22;9350;53.176;8.194;2022-08-21T07:32:52;18.50;99.90
18444;DHT22;9350;53.176;8.194;2022-08-21T07:35:20;18.50;99.90
18444;DHT22;9350;53.176;8.194;2022-08-21T07:37:47;18.60;99.90
18444;DHT22;9350;53.176;8.194;2022-08-21T07:40:14;18.60;99.90
18444;DHT22;9350;53.176;8.194;2022-08-21T07:42:43;18.70;99.90
18444;DHT22;9350;53.176;8.194;2022-08-21T07:45:11;18.70;99.90
18444;DHT22;9350;53.176;8.194;2022-08-21T07:47:39;18.80;99.90
18444;DHT22;9350;53.176;8.194;2022-08-21T07:50:07;18.70;99.90
18444;DHT22;9350;53.176;8.194;2022-08-21T07:52:34;18.80;99.90
18444;DHT22;9350;53.176;8.194;2022-08-21T07:55:00;18.80;99.90
18444;DHT22;9350;53.176;8.194;2022-08-21T07:57:27;18.80;99.90
18444;DHT22;9350;53.176;8.194;2022-08-21T07:59:54;18.90;99.90
18444;DHT22;9350;53.176;8.194;2022-08-21T08:02:22;19.00;99.90
18444;DHT22;9350;53.176;8.194;2022-08-21T08:04:50;19.00;99.90
18444;DHT22;9350;53.176;8.194;2022-08-21T08:07:17;19.00;99.90
18444;DHT22;9350;53.176;8.194;2022-08-21T08:09:44;19.00;99.90
18444;DHT22;9350;53.176;8.194;2022-08-21T08:12:11;19.00;99.90
18444;DHT22;9350;53.176;8.194;2022-08-21T08:14:38;19.10;99.90
18444;DHT22;9350;53.176;8.194;2022-08-21T08:17:04;19.10;99.90
18444;DHT22;9350;53.176;8.194;2022-08-21T08:19:31;19.10;99.90
18444;DHT22;9350;53.176;8.194;2022-08-21T08:21:59;19.20;99.90
18444;DHT22;9350;53.176;8.194;2022-08-21T08:24:26;19.20;99.90
18444;DHT22;9350;53.176;8.194;2022-08-21T08:26:53;19.20;99.90
18444;DHT22;9350;53.176;8.194;2022-08-21T08:29:22;19.20;99.90
18444;DHT22;9350;53.176;8.194;2022-08-21T08:31:49;19.20;99.90
18444;DHT22;9350;53.176;8.194;2022-08-21T08:34:15;19.30;99.90
18444;DHT22;9350;53.176;8.194;2022-08-21T08:36:42;19.40;99.90
18444;DHT22;9350;53.176;8.194;2022-08-21T08:39:10;19.40;99.90
18444;DHT22;9350;53.176;8.194;2022-08-21T08:41:37;19.40;99.90
18444;DHT22;9350;53.176;8.194;2022-08-21T08:44:06;19.50;99.90
18444;DHT22;9350;53.176;8.194;2022-08-21T08:46:38;19.50;99.90
18444;DHT22;9350;53.176;8.194;2022-08-21T08:49:09;19.60;99.90
18444;DHT22;9350;53.176;8.194;2022-08-21T08:51:42;19.60;99.90
18444;DHT22;9350;53.176;8.194;2022-08-21T08:54:15;19.60;99.90
18444;DHT22;9350;53.176;8.194;2022-08-21T08:56:44;19.60;99.90
18444;DHT22;9350;53.176;8.194;2022-08-21T08:59:16;19.70;99.90
18444;DHT22;9350;53.176;8.194;2022-08-21T09:01:43;19.70;99.90
18444;DHT22;9350;53.176;8.194;2022-08-21T09:04:11;19.80;99.90
18444;DHT22;9350;53.176;8.194;2022-08-21T09:06:49;19.90;99.90
18444;DHT22;9350;53.176;8.194;2022-08-21T09:09:30;19.90;99.90
18444;DHT22;9350;53.176;8.194;2022-08-21T09:12:03;20.00;99.90
18444;DHT22;9350;53.176;8.194;2022-08-21T09:14:45;20.10;99.90
18444;DHT22;9350;53.176;8.194;2022-08-21T09:17:20;20.10;99.90
18444;DHT22;9350;53.176;8.194;2022-08-21T09:19:59;20.20;99.90
18444;DHT22;9350;53.176;8.194;2022-08-21T09:22:39;20.30;99.90
18444;DHT22;9350;53.176;8.194;2022-08-21T09:25:15;20.40;99.90
18444;DHT22;9350;53.176;8.194;2022-08-21T09:27:44;20.40;99.90
18444;DHT22;9350;53.176;8.194;2022-08-21T09:30:11;20.40;99.90
18444;DHT22;9350;53.176;8.194;2022-08-21T09:32:39;20.40;99.90
18444;DHT22;9350;53.176;8.194;2022-08-21T09:35:09;20.40;99.90
18444;DHT22;9350;53.176;8.194;2022-08-21T09:37:50;20.50;99.90
18444;DHT22;9350;53.176;8.194;2022-08-21T09:40:28;20.50;99.90
18444;DHT22;9350;53.176;8.194;2022-08-21T09:42:58;20.60;99.90
18444;DHT22;9350;53.176;8.194;2022-08-21T09:45:25;20.60;99.90
18444;DHT22;9350;53.176;8.194;2022-08-21T09:47:52;20.70;99.90
18444;DHT22;9350;53.176;8.194;2022-08-21T09:50:22;20.70;99.90
18444;DHT22;9350;53.176;8.194;2022-08-21T09:52:52;20.70;99.90
18444;DHT22;9350;53.176;8.194;2022-08-21T09:55:30;20.70;99.90
18444;DHT22;9350;53.176;8.194;2022-08-21T09:58:16;20.80;99.90
18444;DHT22;9350;53.176;8.194;2022-08-21T10:00:44;20.80;99.90
18444;DHT22;9350;53.176;8.194;2022-08-21T10:03:14;20.80;99.90
18444;DHT22;9350;53.176;8.194;2022-08-21T10:05:52;20.70;99.90
18444;DHT22;9350;53.176;8.194;2022-08-21T10:08:19;20.70;99.90
18444;DHT22;9350;53.176;8.194;2022-08-21T10:10:51;20.60;99.90
18444;DHT22;9350;53.176;8.194;2022-08-21T10:13:21;20.60;99.90
18444;DHT22;9350;53.176;8.194;2022-08-21T10:15:55;20.60;99.90
18444;DHT22;9350;53.176;8.194;2022-08-21T10:18:26;20.60;99.90
18444;DHT22;9350;53.176;8.194;2022-08-21T10:20:59;20.70;99.90
18444;DHT22;9350;53.176;8.194;2022-08-21T10:23:41;20.70;99.90
18444;DHT22;9350;53.176;8.194;2022-08-21T10:26:25;20.80;99.90
18444;DHT22;9350;53.176;8.194;2022-08-21T10:29:02;20.80;99.90
18444;DHT22;9350;53.176;8.194;2022-08-21T10:31:35;20.90;99.90
18444;DHT22;9350;53.176;8.194;2022-08-21T10:34:15;21.00;99.90
18444;DHT22;9350;53.176;8.194;2022-08-21T10:36:58;21.00;99.90
18444;DHT22;9350;53.176;8.194;2022-08-21T10:39:33;21.10;99.90
18444;DHT22;9350;53.176;8.194;2022-08-21T10:42:27;21.10;99.90
18444;DHT22;9350;53.176;8.194;2022-08-21T10:45:03;21.20;99.90
18444;DHT22;9350;53.176;8.194;2022-08-21T10:47:35;21.30;99.90
18444;DHT22;9350;53.176;8.194;2022-08-21T10:50:12;21.30;99.90
18444;DHT22;9350;53.176;8.194;2022-08-21T10:52:58;21.40;99.90
18444;DHT22;9350;53.176;8.194;2022-08-21T10:55:31;21.40;99.90
18444;DHT22;9350;53.176;8.194;2022-08-21T10:58:05;21.50;99.90
18444;DHT22;9350;53.176;8.194;2022-08-21T11:00:39;21.50;99.90
18444;DHT22;9350;53.176;8.194;2022-08-21T11:03:11;21.50;99.90
18444;DHT22;9350;53.176;8.194;2022-08-21T11:05:42;21.50;99.90
18444;DHT22;9350;53.176;8.194;2022-08-21T11:08:13;21.60;99.90
18444;DHT22;9350;53.176;8.194;2022-08-21T11:10:45;21.50;99.90
18444;DHT22;9350;53.176;8.194;2022-08-21T11:13:17;21.50;99.90
18444;DHT22;9350;53.176;8.194;2022-08-21T11:15:50;21.50;99.90
18444;DHT22;9350;53.176;8.194;2022-08-21T11:18:22;21.50;99.90
18444;DHT22;9350;53.176;8.194;2022-08-21T11:20:58;21.40;99.90
18444;DHT22;9350;53.176;8.194;2022-08-21T11:23:34;21.50;99.90
18444;DHT22;9350;53.176;8.194;2022-08-21T11:26:07;21.50;99.90
18444;DHT22;9350;53.176;8.194;2022-08-21T11:28:41;21.60;99.90
18444;DHT22;9350;53.176;8.194;2022-08-21T11:31:30;21.70;99.90
18444;DHT22;9350;53.176;8.194;2022-08-21T11:34:10;21.80;99.90
18444;DHT22;9350;53.176;8.194;2022-08-21T11:36:44;21.90;99.90
18444;DHT22;9350;53.176;8.194;2022-08-21T11:39:23;21.90;99.90
18444;DHT22;9350;53.176;8.194;2022-08-21T11:41:57;22.00;99.90
18444;DHT22;9350;53.176;8.194;2022-08-21T11:44:34;22.00;99.90
18444;DHT22;9350;53.176;8.194;2022-08-21T11:47:09;22.20;99.90
18444;DHT22;9350;53.176;8.194;2022-08-21T11:49:49;22.20;99.90
18444;DHT22;9350;53.176;8.194;2022-08-21T11:52:21;22.20;99.90
18444;DHT22;9350;53.176;8.194;2022-08-21T11:54:54;22.20;99.90
18444;DHT22;9350;53.176;8.194;2022-08-21T11:57:25;22.20;99.90
18444;DHT22;9350;53.176;8.194;2022-08-21T12:00:00;22.20;99.90
18444;DHT22;9350;53.176;8.194;2022-08-21T12:02:31;22.20;99.90
18444;DHT22;9350;53.176;8.194;2022-08-21T12:05:02;22.30;99.90
18444;DHT22;9350;53.176;8.194;2022-08-21T12:07:33;22.30;99.90
18444;DHT22;9350;53.176;8.194;2022-08-21T12:10:00;22.30;99.90
18444;DHT22;9350;53.176;8.194;2022-08-21T12:12:29;22.30;99.90
18444;DHT22;9350;53.176;8.194;2022-08-21T12:15:23;22.40;99.90
18444;DHT22;9350;53.176;8.194;2022-08-21T12:18:02;22.50;99.90
18444;DHT22;9350;53.176;8.194;2022-08-21T12:20:36;22.50;99.90
18444;DHT22;9350;53.176;8.194;2022-08-21T12:23:14;22.40;99.90
18444;DHT22;9350;53.176;8.194;2022-08-21T12:25:46;22.30;99.90
18444;DHT22;9350;53.176;8.194;2022-08-21T12:28:21;22.30;99.90
18444;DHT22;9350;53.176;8.194;2022-08-21T12:30:49;22.40;99.90
18444;DHT22;9350;53.176;8.194;2022-08-21T12:33:23;22.50;99.90
18444;DHT22;9350;53.176;8.194;2022-08-21T12:35:53;22.50;99.90
18444;DHT22;9350;53.176;8.194;2022-08-21T12:38:29;22.60;99.90
18444;DHT22;9350;53.176;8.194;2022-08-21T12:40:59;22.80;99.90
18444;DHT22;9350;53.176;8.194;2022-08-21T12:43:30;22.90;99.90
18444;DHT22;9350;53.176;8.194;2022-08-21T12:45:59;22.90;99.90
18444;DHT22;9350;53.176;8.194;2022-08-21T12:48:31;22.80;99.90
18444;DHT22;9350;53.176;8.194;2022-08-21T12:51:09;22.70;99.90
18444;DHT22;9350;53.176;8.194;2022-08-21T12:53:43;22.70;99.90
18444;DHT22;9350;53.176;8.194;2022-08-21T12:56:13;22.80;99.90
18444;DHT22;9350;53.176;8.194;2022-08-21T12:58:44;23.00;99.90
18444;DHT22;9350;53.176;8.194;2022-08-21T13:01:19;23.00;99.90
18444;DHT22;9350;53.176;8.194;2022-08-21T13:03:48;23.20;99.90
18444;DHT22;9350;53.176;8.194;2022-08-21T13:06:17;23.20;99.90
18444;DHT22;9350;53.176;8.194;2022-08-21T13:08:47;23.20;99.90
18444;DHT22;9350;53.176;8.194;2022-08-21T13:11:16;23.30;99.90
18444;DHT22;9350;53.176;8.194;2022-08-21T13:13:49;23.20;99.90
18444;DHT22;9350;53.176;8.194;2022-08-21T13:16:22;23.30;99.90
18444;DHT22;9350;53.176;8.194;2022-08-21T13:18:56;23.40;99.90
18444;DHT22;9350;53.176;8.194;2022-08-21T13:21:29;23.40;99.90
18444;DHT22;9350;53.176;8.194;2022-08-21T13:24:10;23.50;99.90
18444;DHT22;9350;53.176;8.194;2022-08-21T13:26:38;23.50;99.90
18444;DHT22;9350;53.176;8.194;2022-08-21T13:29:07;23.50;99.90
18444;DHT22;9350;53.176;8.194;2022-08-21T13:31:39;23.60;99.90
18444;DHT22;9350;53.176;8.194;2022-08-21T13:34:09;23.60;99.90
18444;DHT22;9350;53.176;8.194;2022-08-21T13:36:39;23.60;99.90
18444;DHT22;9350;53.176;8.194;2022-08-21T13:39:09;23.70;99.90
18444;DHT22;9350;53.176;8.194;2022-08-21T13:41:39;23.90;99.90
18444;DHT22;9350;53.176;8.194;2022-08-21T13:44:16;23.90;99.90
18444;DHT22;9350;53.176;8.194;2022-08-21T13:46:45;24.00;99.90
18444;DHT22;9350;53.176;8.194;2022-08-21T13:49:15;24.00;99.90
18444;DHT22;9350;53.176;8.194;2022-08-21T13:51:43;24.00;99.90
18444;DHT22;9350;53.176;8.194;2022-08-21T13:54:16;24.10;99.90
18444;DHT22;9350;53.176;8.194;2022-08-21T13:56:45;24.10;99.90
18444;DHT22;9350;53.176;8.194;2022-08-21T13:59:22;24.10;99.90
18444;DHT22;9350;53.176;8.194;2022-08-21T14:01:53;24.10;99.90
18444;DHT22;9350;53.176;8.194;2022-08-21T14:04:26;24.10;99.90
18444;DHT22;9350;53.176;8.194;2022-08-21T14:06:56;24.10;99.90
18444;DHT22;9350;53.176;8.194;2022-08-21T14:09:28;24.10;99.90
18444;DHT22;9350;53.176;8.194;2022-08-21T14:11:57;24.10;99.90
18444;DHT22;9350;53.176;8.194;2022-08-21T14:14:26;24.20;99.90
18444;DHT22;9350;53.176;8.194;2022-08-21T14:16:58;24.20;99.90
18444;DHT22;9350;53.176;8.194;2022-08-21T14:19:27;24.20;99.90
18444;DHT22;9350;53.176;8.194;2022-08-21T14:21:54;24.10;99.90
18444;DHT22;9350;53.176;8.194;2022-08-21T14:24:27;24.10;99.90
18444;DHT22;9350;53.176;8.194;2022-08-21T14:26:56;24.00;99.90
18444;DHT22;9350;53.176;8.194;2022-08-21T14:29:26;23.90;99.90
18444;DHT22;9350;53.176;8.194;2022-08-21T14:31:57;24.00;99.90
18444;DHT22;9350;53.176;8.194;2022-08-21T14:34:25;24.00;99.90
18444;DHT22;9350;53.176;8.194;2022-08-21T14:36:53;24.20;99.90
18444;DHT22;9350;53.176;8.194;2022-08-21T14:39:21;24.30;99.90
18444;DHT22;9350;53.176;8.194;2022-08-21T14:41:49;24.40;99.90
18444;DHT22;9350;53.176;8.194;2022-08-21T14:44:17;24.40;99.90
18444;DHT22;9350;53.176;8.194;2022-08-21T14:46:44;24.40;99.90
18444;DHT22;9350;53.176;8.194;2022-08-21T14:49:13;24.50;99.90
18444;DHT22;9350;53.176;8.194;2022-08-21T14:51:40;24.40;99.90
18444;DHT22;9350;53.176;8.194;2022-08-21T14:54:07;24.30;99.90
18444;DHT22;9350;53.176;8.194;2022-08-21T14:56:34;24.20;99.90
18444;DHT22;9350;53.176;8.194;2022-08-21T14:59:04;24.30;99.90
18444;DHT22;9350;53.176;8.194;2022-08-21T15:01:32;24.30;99.90
18444;DHT22;9350;53.176;8.194;2022-08-21T15:04:00;24.30;99.90
18444;DHT22;9350;53.176;8.194;2022-08-21T15:06:28;24.20;99.90
18444;DHT22;9350;53.176;8.194;2022-08-21T15:08:55;24.20;99.90
18444;DHT22;9350;53.176;8.194;2022-08-21T15:11:23;24.10;99.90
18444;DHT22;9350;53.176;8.194;2022-08-21T15:13:55;24.10;99.90
18444;DHT22;9350;53.176;8.194;2022-08-21T15:16:23;24.10;99.90
18444;DHT22;9350;53.176;8.194;2022-08-21T15:18:50;24.10;99.90
18444;DHT22;9350;53.176;8.194;2022-08-21T15:21:16;24.10;99.90
18444;DHT22;9350;53.176;8.194;2022-08-21T15:23:44;24.20;99.90
18444;DHT22;9350;53.176;8.194;2022-08-21T15:26:11;24.20;99.90
18444;DHT22;9350;53.176;8.194;2022-08-21T15:28:39;24.10;99.90
18444;DHT22;9350;53.176;8.194;2022-08-21T15:31:06;24.10;99.90
18444;DHT22;9350;53.176;8.194;2022-08-21T15:33:33;24.00;99.90
18444;DHT22;9350;53.176;8.194;2022-08-21T15:36:00;24.00;99.90
18444;DHT22;9350;53.176;8.194;2022-08-21T15:38:27;24.00;99.90
18444;DHT22;9350;53.176;8.194;2022-08-21T15:40:55;23.90;99.90
18444;DHT22;9350;53.176;8.194;2022-08-21T15:43:24;23.90;99.90
18444;DHT22;9350;53.176;8.194;2022-08-21T15:45:51;23.80;99.90
18444;DHT22;9350;53.176;8.194;2022-08-21T15:48:18;23.80;99.90
18444;DHT22;9350;53.176;8.194;2022-08-21T15:50:46;23.80;99.90
18444;DHT22;9350;53.176;8.194;2022-08-21T15:53:12;23.80;99.90
18444;DHT22;9350;53.176;8.194;2022-08-21T15:55:39;23.70;99.90
18444;DHT22;9350;53.176;8.194;2022-08-21T15:58:12;23.70;99.90
18444;DHT22;9350;53.176;8.194;2022-08-21T16:00:40;23.60;99.90
18444;DHT22;9350;53.176;8.194;2022-08-21T16:03:10;23.60;99.90
18444;DHT22;9350;53.176;8.194;2022-08-21T16:05:39;23.50;99.90
18444;DHT22;9350;53.176;8.194;2022-08-21T16:08:06;23.50;99.90
18444;DHT22;9350;53.176;8.194;2022-08-21T16:10:35;23.50;99.90
18444;DHT22;9350;53.176;8.194;2022-08-21T16:13:04;23.40;99.90
18444;DHT22;9350;53.176;8.194;2022-08-21T16:15:34;23.30;99.90
18444;DHT22;9350;53.176;8.194;2022-08-21T16:18:00;23.30;99.90
18444;DHT22;9350;53.176;8.194;2022-08-21T16:20:28;23.30;99.90
18444;DHT22;9350;53.176;8.194;2022-08-21T16:22:57;23.30;99.90
18444;DHT22;9350;53.176;8.194;2022-08-21T16:25:24;23.20;99.90